Time;durP1;ratioP1;P1;durP2;ratioP2;P2;SDS_P1;SDS_P2;PMS_P1;PMS_P2;Temp;Humidity;BMP_temperature;BMP_pressure;BME280_temperature;BME280_humidity;BME280_pressure;Samples;Min_cycle;Max_cycle;Signal;HPM_P1;HPM_P2
2021/10/28 00:13:45;;;;;;;4.78;4.15;;;;;;;;;;4991674;28;20244;-77
2021/10/28 00:16:18;;;;;;;3.53;3.22;;;;;;;;;;4992195;28;20244;-77
2021/10/28 00:18:49;;;;;;;3.97;3.58;;;;;;;;;;4994222;28;20623;-75
2021/10/28 00:21:16;;;;;;;3.67;3.38;;;;;;;;;;4992709;28;20202;-77
2021/10/28 00:23:46;;;;;;;4.25;3.35;;;;;;;;;;4992800;28;20190;-76
2021/10/28 00:26:14;;;;;;;3.60;3.30;;;;;;;;;;4982639;28;20190;-77
2021/10/28 00:28:41;;;;;;;7.72;4.68;;;;;;;;;;4994106;28;20233;-77
2021/10/28 00:31:08;;;;;;;4.03;3.60;;;;;;;;;;4994213;28;20202;-77
2021/10/28 00:33:36;;;;;;;3.65;3.35;;;;;;;;;;4987036;28;20641;-78
2021/10/28 00:36:06;;;;;;;3.22;2.92;;;;;;;;;;4991704;28;20194;-77
2021/10/28 00:38:33;;;;;;;3.80;3.50;;;;;;;;;;4987806;28;20263;-77
2021/10/28 00:41:01;;;;;;;4.30;3.17;;;;;;;;;;4992048;28;20204;-77
2021/10/28 00:43:29;;;;;;;5.18;3.90;;;;;;;;;;4985003;28;20193;-78
2021/10/28 00:45:56;;;;;;;4.28;3.88;;;;;;;;;;4992278;28;20268;-77
2021/10/28 00:48:23;;;;;;;3.97;3.67;;;;;;;;;;4987716;28;20229;-77
2021/10/28 00:50:53;;;;;;;3.85;3.05;;;;;;;;;;4993762;28;20197;-78
2021/10/28 00:53:22;;;;;;;3.63;3.33;;;;;;;;;;4990756;28;20225;-78
2021/10/28 00:55:51;;;;;;;3.50;3.20;;;;;;;;;;4986619;28;20215;-77
2021/10/28 00:58:22;;;;;;;4.30;3.70;;;;;;;;;;4990103;28;20197;-78
2021/10/28 01:00:49;;;;;;;4.05;3.47;;;;;;;;;;4992562;28;20190;-78
2021/10/28 01:03:16;;;;;;;5.18;3.80;;;;;;;;;;4993038;28;20262;-77
2021/10/28 01:05:43;;;;;;;6.40;4.22;;;;;;;;;;4991027;28;20224;-78
2021/10/28 01:08:11;;;;;;;4.18;3.55;;;;;;;;;;4987705;28;20228;-77
2021/10/28 01:10:39;;;;;;;4.35;3.67;;;;;;;;;;4991534;28;20580;-80
2021/10/28 01:13:06;;;;;;;4.20;3.80;;;;;;;;;;4992468;28;20676;-79
2021/10/28 01:15:33;;;;;;;4.00;3.60;;;;;;;;;;4991989;28;20199;-79
2021/10/28 01:18:00;;;;;;;3.88;3.47;;;;;;;;;;4990641;28;20212;-78
2021/10/28 01:20:29;;;;;;;3.95;3.55;;;;;;;;;;4988898;28;20220;-78
2021/10/28 01:22:56;;;;;;;3.63;3.33;;;;;;;;;;4984773;28;20681;-78
2021/10/28 01:25:24;;;;;;;4.82;3.65;;;;;;;;;;4992539;28;20204;-78
2021/10/28 01:27:51;;;;;;;4.20;3.47;;;;;;;;;;4990769;28;20228;-78
2021/10/28 01:30:18;;;;;;;3.15;2.90;;;;;;;;;;4991183;28;20204;-78
2021/10/28 01:32:45;;;;;;;5.38;4.53;;;;;;;;;;4984905;28;20193;-78
2021/10/28 01:35:13;;;;;;;4.43;4.03;;;;;;;;;;4991739;28;20580;-78
2021/10/28 01:37:45;;;;;;;4.47;3.70;;;;;;;;;;4988388;28;20220;-79
2021/10/28 01:40:12;;;;;;;5.13;3.97;;;;;;;;;;4983536;28;20711;-79
2021/10/28 01:42:39;;;;;;;3.75;3.45;;;;;;;;;;4981686;28;20194;-79
2021/10/28 01:45:07;;;;;;;4.13;3.47;;;;;;;;;;4985632;28;20245;-78
2021/10/28 01:47:34;;;;;;;4.45;3.67;;;;;;;;;;4978233;28;20562;-79
2021/10/28 01:50:02;;;;;;;3.83;3.40;;;;;;;;;;4991718;28;20198;-78
2021/10/28 01:52:29;;;;;;;4.53;3.35;;;;;;;;;;4991925;28;20273;-77
2021/10/28 01:54:57;;;;;;;3.47;3.17;;;;;;;;;;4990651;28;20201;-77
2021/10/28 01:57:25;;;;;;;3.15;2.85;;;;;;;;;;4984408;28;20209;-77
2021/10/28 01:59:52;;;;;;;4.07;3.70;;;;;;;;;;4990920;28;20201;-77
2021/10/28 02:02:19;;;;;;;4.00;3.20;;;;;;;;;;4988411;28;20185;-77
2021/10/28 02:04:46;;;;;;;3.58;3.25;;;;;;;;;;4985828;28;20198;-76
2021/10/28 02:07:13;;;;;;;3.88;3.05;;;;;;;;;;4987190;28;20225;-76
2021/10/28 02:09:40;;;;;;;5.93;3.95;;;;;;;;;;4991371;28;20229;-77
2021/10/28 02:12:09;;;;;;;5.00;4.60;;;;;;;;;;4989817;28;20196;-76
2021/10/28 02:14:36;;;;;;;4.25;3.40;;;;;;;;;;4986799;28;20234;-76
2021/10/28 02:17:04;;;;;;;4.70;3.60;;;;;;;;;;4982777;28;20189;-76
2021/10/28 02:19:31;;;;;;;4.65;4.00;;;;;;;;;;4986975;28;20209;-76
2021/10/28 02:21:58;;;;;;;3.55;3.25;;;;;;;;;;4985462;28;20481;-75
2021/10/28 02:24:28;;;;;;;4.78;3.80;;;;;;;;;;4988705;28;20224;-74
2021/10/28 02:26:55;;;;;;;4.57;3.58;;;;;;;;;;4991605;28;20588;-74
2021/10/28 02:29:24;;;;;;;3.08;2.78;;;;;;;;;;4986610;28;20307;-74
2021/10/28 02:31:51;;;;;;;4.97;3.60;;;;;;;;;;4984999;28;20193;-74
2021/10/28 02:34:18;;;;;;;4.15;3.30;;;;;;;;;;4989949;28;20189;-74
2021/10/28 02:36:45;;;;;;;3.75;3.28;;;;;;;;;;4982791;28;20193;-74
2021/10/28 02:39:12;;;;;;;3.60;3.33;;;;;;;;;;4986657;28;20205;-76
2021/10/28 02:41:40;;;;;;;5.25;4.75;;;;;;;;;;4990867;28;20198;-74
2021/10/28 02:44:07;;;;;;;4.70;3.33;;;;;;;;;;4978863;28;20285;-75
2021/10/28 02:46:35;;;;;;;4.32;3.75;;;;;;;;;;4983735;28;20197;-74
2021/10/28 02:49:03;;;;;;;3.90;3.45;;;;;;;;;;4989695;28;20539;-75
2021/10/28 02:51:30;;;;;;;4.07;3.30;;;;;;;;;;4991186;28;20193;-75
2021/10/28 02:53:57;;;;;;;4.22;3.30;;;;;;;;;;4989426;28;20190;-75
2021/10/28 02:56:24;;;;;;;3.10;2.90;;;;;;;;;;4988622;28;20198;-75
2021/10/28 02:58:51;;;;;;;3.25;2.95;;;;;;;;;;4987003;28;20224;-75
2021/10/28 03:01:18;;;;;;;3.42;3.13;;;;;;;;;;4991383;28;20269;-76
2021/10/28 03:03:46;;;;;;;5.00;4.20;;;;;;;;;;4981719;28;20202;-76
2021/10/28 03:06:13;;;;;;;4.03;3.05;;;;;;;;;;4984718;28;20232;-76
2021/10/28 03:08:41;;;;;;;3.20;2.58;;;;;;;;;;4983174;28;20226;-75
2021/10/28 03:11:08;;;;;;;5.00;3.05;;;;;;;;;;4983961;28;20284;-75
2021/10/28 03:13:37;;;;;;;3.70;3.40;;;;;;;;;;4990342;28;20236;-74
2021/10/28 03:16:14;;;;;;;4.00;3.60;;;;;;;;;;4985694;28;20280;-76
2021/10/28 03:26:52;;;;;;;3.80;3.50;;;;;;;;;;4981129;28;20672;-75
2021/10/28 03:29:19;;;;;;;6.20;4.05;;;;;;;;;;4989345;28;20217;-74
2021/10/28 03:31:47;;;;;;;4.57;3.05;;;;;;;;;;4977357;28;20190;-75
2021/10/28 03:34:14;;;;;;;4.25;3.00;;;;;;;;;;4982484;28;20199;-75
2021/10/28 03:36:48;;;;;;;3.40;3.10;;;;;;;;;;4990455;28;20219;-75
2021/10/28 03:39:28;;;;;;;4.05;3.35;;;;;;;;;;4990600;28;20231;-75
2021/10/28 03:47:58;;;;;;;4.32;3.65;;;;;;;;;;4984669;28;20204;-75
2021/10/28 04:01:37;;;;;;;3.90;3.00;;;;;;;;;;4985236;28;20672;-76
2021/10/28 04:18:19;;;;;;;6.97;3.25;;;;;;;;;;4924282;29;20226;-75
2021/10/28 04:29:05;;;;;;;3.25;2.95;;;;;;;;;;4989393;28;20220;-75
2021/10/28 04:31:33;;;;;;;3.13;2.80;;;;;;;;;;4987349;28;20206;-75
2021/10/28 04:34:01;;;;;;;3.25;2.95;;;;;;;;;;4985900;28;20212;-75
2021/10/28 04:36:30;;;;;;;3.05;2.78;;;;;;;;;;4993003;28;20224;-75
2021/10/28 04:38:57;;;;;;;3.88;3.58;;;;;;;;;;4991902;28;20221;-75
2021/10/28 04:41:25;;;;;;;3.70;3.40;;;;;;;;;;4988859;28;20205;-76
2021/10/28 04:43:52;;;;;;;5.40;3.40;;;;;;;;;;4985234;28;20195;-76
2021/10/28 04:46:20;;;;;;;3.70;3.40;;;;;;;;;;4988396;28;20194;-76
2021/10/28 04:48:47;;;;;;;6.40;3.03;;;;;;;;;;4984741;28;20245;-76
2021/10/28 04:51:15;;;;;;;3.25;2.90;;;;;;;;;;4985723;28;20201;-75
2021/10/28 04:53:42;;;;;;;3.60;3.13;;;;;;;;;;4983830;28;20194;-75
2021/10/28 04:56:09;;;;;;;7.38;3.40;;;;;;;;;;4984613;28;20197;-76
2021/10/28 04:58:38;;;;;;;3.70;3.40;;;;;;;;;;4992684;28;20205;-76
2021/10/28 05:01:05;;;;;;;4.22;3.83;;;;;;;;;;4980189;28;20209;-75
2021/10/28 05:03:34;;;;;;;3.97;3.33;;;;;;;;;;4991088;28;20197;-78
2021/10/28 05:06:01;;;;;;;3.17;2.88;;;;;;;;;;4988354;28;20214;-77
2021/10/28 05:08:28;;;;;;;4.47;3.75;;;;;;;;;;4993430;28;20240;-76
2021/10/28 05:10:55;;;;;;;5.00;4.22;;;;;;;;;;4986418;28;20193;-78
2021/10/28 05:13:22;;;;;;;6.07;3.45;;;;;;;;;;4988158;28;20194;-77
2021/10/28 05:15:51;;;;;;;3.83;3.40;;;;;;;;;;4992863;28;20193;-77
2021/10/28 05:18:21;;;;;;;5.10;4.40;;;;;;;;;;4993051;28;20209;-76
2021/10/28 05:20:48;;;;;;;5.70;3.40;;;;;;;;;;4991635;28;20200;-74
2021/10/28 05:23:15;;;;;;;5.28;3.50;;;;;;;;;;4986171;28;20185;-75
2021/10/28 05:25:42;;;;;;;5.70;3.80;;;;;;;;;;4992270;28;20214;-75
2021/10/28 05:28:09;;;;;;;3.58;3.25;;;;;;;;;;4991400;28;20304;-75
2021/10/28 05:30:36;;;;;;;4.65;3.50;;;;;;;;;;4986735;28;20190;-74
2021/10/28 05:33:05;;;;;;;4.00;2.78;;;;;;;;;;4987550;28;20686;-75
2021/10/28 05:35:32;;;;;;;4.45;3.15;;;;;;;;;;4993145;28;20197;-76
2021/10/28 05:37:59;;;;;;;4.70;3.95;;;;;;;;;;4992177;28;20198;-76
2021/10/28 05:40:26;;;;;;;3.78;3.22;;;;;;;;;;4990695;28;20193;-76
2021/10/28 05:42:54;;;;;;;6.13;3.83;;;;;;;;;;4986488;28;20194;-76
2021/10/28 05:45:22;;;;;;;3.95;3.55;;;;;;;;;;4990124;28;20201;-76
2021/10/28 05:47:49;;;;;;;5.57;3.72;;;;;;;;;;4992103;28;20192;-75
2021/10/28 05:50:20;;;;;;;6.30;4.10;;;;;;;;;;4991924;28;20308;-75
2021/10/28 05:52:48;;;;;;;4.40;3.80;;;;;;;;;;4991359;28;20312;-75
2021/10/28 05:55:15;;;;;;;4.30;3.70;;;;;;;;;;4987264;28;20194;-76
2021/10/28 05:57:42;;;;;;;3.35;3.08;;;;;;;;;;4984442;28;20568;-75
2021/10/28 06:00:10;;;;;;;3.50;3.20;;;;;;;;;;4990074;28;20304;-75
2021/10/28 06:02:37;;;;;;;4.95;4.00;;;;;;;;;;4988096;28;20204;-76
2021/10/28 06:05:05;;;;;;;4.75;3.85;;;;;;;;;;4983068;28;20620;-75
2021/10/28 06:07:33;;;;;;;4.40;3.88;;;;;;;;;;4990931;28;20245;-76
2021/10/28 06:10:00;;;;;;;4.22;3.75;;;;;;;;;;4991382;28;20308;-76
2021/10/28 06:12:32;;;;;;;5.47;4.13;;;;;;;;;;4980860;28;20665;-77
2021/10/28 06:14:59;;;;;;;4.65;4.07;;;;;;;;;;4986684;28;20360;-77
2021/10/28 06:17:31;;;;;;;6.55;3.97;;;;;;;;;;4987444;28;20280;-77
2021/10/28 06:19:59;;;;;;;5.32;4.50;;;;;;;;;;4991146;28;20200;-77
2021/10/28 06:22:26;;;;;;;4.70;4.20;;;;;;;;;;4991065;28;20190;-77
2021/10/28 06:24:55;;;;;;;5.60;5.00;;;;;;;;;;4990407;28;20197;-78
2021/10/28 06:27:22;;;;;;;5.10;3.70;;;;;;;;;;4988229;28;20196;-77
2021/10/28 06:29:49;;;;;;;4.22;3.65;;;;;;;;;;4990732;28;20641;-77
2021/10/28 06:32:16;;;;;;;5.63;4.10;;;;;;;;;;4982936;28;20245;-78
2021/10/28 06:34:45;;;;;;;5.93;3.95;;;;;;;;;;4983692;28;20198;-77
2021/10/28 06:37:12;;;;;;;5.35;3.72;;;;;;;;;;4982388;28;20197;-78
2021/10/28 06:39:40;;;;;;;4.55;3.80;;;;;;;;;;4974221;28;20204;-78
2021/10/28 06:42:11;;;;;;;5.90;4.95;;;;;;;;;;4984443;28;20209;-80
2021/10/28 06:44:38;;;;;;;6.60;3.88;;;;;;;;;;4978260;28;20190;-80
2021/10/28 06:47:06;;;;;;;3.97;3.60;;;;;;;;;;4984784;28;20214;-80
2021/10/28 06:49:36;;;;;;;4.88;4.20;;;;;;;;;;4982119;28;20276;-77
2021/10/28 06:52:06;;;;;;;5.03;4.50;;;;;;;;;;4987334;28;20256;-80
2021/10/28 06:54:35;;;;;;;7.70;4.10;;;;;;;;;;4981717;28;20217;-77
2021/10/28 06:57:31;;;;;;;4.70;4.28;;;;;;;;;;4989602;28;20209;-77
2021/10/28 07:02:45;;;;;;;4.95;4.47;;;;;;;;;;4977840;28;20228;-77
2021/10/28 07:05:12;;;;;;;4.40;3.95;;;;;;;;;;4979856;28;20233;-76
2021/10/28 07:07:39;;;;;;;5.13;4.20;;;;;;;;;;4984468;28;20201;-76
2021/10/28 07:10:10;;;;;;;4.80;4.07;;;;;;;;;;4991151;28;20577;-80
2021/10/28 07:12:52;;;;;;;6.43;4.15;;;;;;;;;;4990219;28;20224;-80
2021/10/28 07:15:23;;;;;;;6.47;4.90;;;;;;;;;;4980866;28;20217;-79
2021/10/28 07:18:07;;;;;;;6.57;5.00;;;;;;;;;;4987591;28;20680;-80
2021/10/28 07:20:57;;;;;;;4.72;4.07;;;;;;;;;;4987132;28;20665;-80
2021/10/28 07:32:28;;;;;;;4.50;4.00;;;;;;;;;;5055793;28;20574;-73
2021/10/28 07:35:07;;;;;;;6.25;4.10;;;;;;;;;;5061275;28;20661;-74
2021/10/28 07:57:34;;;;;;;4.20;3.80;;;;;;;;;;5067399;28;20198;-72
2021/10/28 08:06:26;;;;;;;5.13;3.88;;;;;;;;;;5000202;28;20295;-75
2021/10/28 08:14:53;;;;;;;6.40;3.80;;;;;;;;;;5051208;28;20213;-74
2021/10/28 08:17:44;;;;;;;5.20;3.95;;;;;;;;;;5049496;28;20191;-74
2021/10/28 08:20:16;;;;;;;3.95;3.38;;;;;;;;;;5056163;28;20214;-74
2021/10/28 08:22:48;;;;;;;5.95;3.08;;;;;;;;;;5048975;28;20199;-74
2021/10/28 08:30:44;;;;;;;4.10;3.25;;;;;;;;;;5062134;28;20198;-74
2021/10/28 08:33:13;;;;;;;3.95;3.20;;;;;;;;;;5055303;28;20313;-73
2021/10/28 08:35:51;;;;;;;3.92;3.00;;;;;;;;;;5063844;28;20219;-73
2021/10/28 08:38:18;;;;;;;3.95;3.55;;;;;;;;;;5047775;28;20659;-73
2021/10/28 08:40:45;;;;;;;4.05;3.70;;;;;;;;;;5049615;28;20199;-72
2021/10/28 08:43:13;;;;;;;4.20;3.42;;;;;;;;;;5048787;28;20685;-73
2021/10/28 08:45:40;;;;;;;3.72;3.33;;;;;;;;;;5050993;28;20682;-72
2021/10/28 08:48:08;;;;;;;6.78;3.42;;;;;;;;;;5048534;28;20196;-75
2021/10/28 08:50:41;;;;;;;3.78;3.35;;;;;;;;;;5051046;28;20254;-72
2021/10/28 08:53:23;;;;;;;3.95;3.35;;;;;;;;;;5050699;28;20199;-74
2021/10/28 08:55:54;;;;;;;2.80;2.55;;;;;;;;;;5052211;28;20199;-73
2021/10/28 09:26:13;;;;;;;3.10;2.72;;;;;;;;;;5049442;28;20227;-73
2021/10/28 09:28:43;;;;;;;3.60;2.50;;;;;;;;;;5053115;28;20555;-72
2021/10/28 09:31:13;;;;;;;4.30;3.90;;;;;;;;;;5044256;28;20290;-73
2021/10/28 09:33:50;;;;;;;4.15;3.25;;;;;;;;;;5051047;28;20203;-73
2021/10/28 09:45:01;;;;;;;4.10;3.70;;;;;;;;;;5042156;28;20570;-74
2021/10/28 09:47:33;;;;;;;3.28;2.97;;;;;;;;;;5042403;28;20199;-73
2021/10/28 09:50:09;;;;;;;7.00;3.42;;;;;;;;;;5040927;28;20227;-73
2021/10/28 09:52:36;;;;;;;3.25;2.95;;;;;;;;;;5036785;28;20651;-73
2021/10/28 09:58:01;;;;;;;7.40;3.85;;;;;;;;;;5039244;28;20673;-73
2021/10/28 10:00:35;;;;;;;3.85;3.53;;;;;;;;;;5045951;28;20242;-73
2021/10/28 10:03:09;;;;;;;4.07;3.60;;;;;;;;;;5045585;28;20226;-73
2021/10/28 10:05:37;;;;;;;3.17;2.88;;;;;;;;;;5032676;28;20235;-73
2021/10/28 10:08:07;;;;;;;10.60;2.65;;;;;;;;;;5043189;28;20203;-73
2021/10/28 10:10:35;;;;;;;2.50;2.25;;;;;;;;;;5048504;28;20218;-75
2021/10/28 10:13:03;;;;;;;2.92;2.63;;;;;;;;;;5045990;28;20203;-74
2021/10/28 10:15:31;;;;;;;2.72;2.45;;;;;;;;;;5046020;28;20200;-74
2021/10/28 10:18:01;;;;;;;3.63;2.88;;;;;;;;;;5049490;28;20246;-76
2021/10/28 10:20:34;;;;;;;4.80;2.70;;;;;;;;;;5045946;28;20204;-73
2021/10/28 10:23:21;;;;;;;2.92;2.67;;;;;;;;;;5037060;28;20283;-74
2021/10/28 10:26:09;;;;;;;2.55;2.30;;;;;;;;;;5032361;28;20307;-74
2021/10/28 10:29:17;;;;;;;2.58;2.25;;;;;;;;;;5039762;28;20191;-73
2021/10/28 12:17:44;;;;;;;2.97;1.60;;;;;;;;;;5042858;28;20627;-73
2021/10/28 12:43:27;;;;;;;4.90;2.33;;;;;;;;;;5042534;28;20284;-73
2021/10/28 12:46:12;;;;;;;3.30;1.92;;;;;;;;;;5050580;28;20580;-76
2021/10/28 12:51:40;;;;;;;4.75;1.90;;;;;;;;;;5038010;28;20277;-76
2021/10/28 13:02:03;;;;;;;3.45;2.10;;;;;;;;;;5043239;28;20336;-75
2021/10/28 13:36:17;;;;;;;4.15;2.38;;;;;;;;;;5036653;28;20202;-76
2021/10/28 13:50:12;;;;;;;3.40;1.80;;;;;;;;;;5032661;28;20203;-77
2021/10/28 13:58:45;;;;;;;2.78;2.10;;;;;;;;;;5050838;28;20198;-77
2021/10/28 14:21:13;;;;;;;8.45;1.95;;;;;;;;;;5069429;28;20266;-77
2021/10/28 14:23:56;;;;;;;1.88;1.70;;;;;;;;;;5076698;28;20202;-75
2021/10/28 14:26:54;;;;;;;2.78;1.92;;;;;;;;;;5085208;28;20248;-77
2021/10/28 14:29:44;;;;;;;2.97;1.95;;;;;;;;;;5075646;28;20207;-79
2021/10/28 14:35:47;;;;;;;3.50;1.55;;;;;;;;;;5051970;28;20233;-78
2021/10/28 15:03:12;;;;;;;1.90;1.50;;;;;;;;;;5084447;28;20704;-79
2021/10/28 15:27:55;;;;;;;2.97;1.95;;;;;;;;;;5066373;28;20562;-78
2021/10/28 15:30:31;;;;;;;5.63;2.70;;;;;;;;;;5065350;28;20230;-78
2021/10/28 15:35:59;;;;;;;2.97;2.05;;;;;;;;;;5037203;28;20210;-77
2021/10/28 15:38:36;;;;;;;4.45;2.97;;;;;;;;;;5062921;28;20620;-76
2021/10/28 15:41:21;;;;;;;3.15;1.92;;;;;;;;;;5064813;28;20202;-78
2021/10/28 16:22:49;;;;;;;4.80;3.15;;;;;;;;;;5058151;28;20194;-75
2021/10/28 16:25:18;;;;;;;2.88;2.58;;;;;;;;;;5067153;28;20195;-75
2021/10/28 16:27:45;;;;;;;4.55;2.60;;;;;;;;;;5072524;28;20569;-75
2021/10/28 16:30:12;;;;;;;13.25;2.72;;;;;;;;;;5071496;28;20213;-76
2021/10/28 16:32:39;;;;;;;3.33;2.20;;;;;;;;;;5052590;28;20216;-75
2021/10/28 16:35:07;;;;;;;2.60;2.40;;;;;;;;;;5066045;28;20576;-75
2021/10/28 16:37:34;;;;;;;3.40;2.70;;;;;;;;;;5051292;28;20206;-75
2021/10/28 16:40:01;;;;;;;3.35;3.03;;;;;;;;;;5064805;28;20202;-76
2021/10/28 16:42:30;;;;;;;3.67;2.33;;;;;;;;;;5068629;28;20198;-75
2021/10/28 16:44:57;;;;;;;2.30;2.10;;;;;;;;;;5064841;28;20559;-76
2021/10/28 16:47:25;;;;;;;2.90;2.63;;;;;;;;;;5056998;28;20199;-76
2021/10/28 16:49:52;;;;;;;3.10;2.80;;;;;;;;;;5071949;28;20600;-75
2021/10/28 16:52:19;;;;;;;3.15;2.90;;;;;;;;;;5057324;28;20200;-76
2021/10/28 16:54:46;;;;;;;4.00;2.45;;;;;;;;;;5060250;28;20218;-75
2021/10/28 16:57:13;;;;;;;3.67;2.85;;;;;;;;;;5068009;28;20206;-75
2021/10/28 16:59:42;;;;;;;3.42;2.20;;;;;;;;;;5071677;28;20562;-75
2021/10/28 17:02:09;;;;;;;3.67;2.78;;;;;;;;;;5066884;28;20206;-75
2021/10/28 17:04:36;;;;;;;2.60;2.40;;;;;;;;;;5068817;28;20195;-75
2021/10/28 17:07:03;;;;;;;4.28;3.63;;;;;;;;;;5063109;28;20195;-76
2021/10/28 17:09:30;;;;;;;3.13;2.83;;;;;;;;;;5064098;28;20272;-74
2021/10/28 17:11:57;;;;;;;4.15;3.05;;;;;;;;;;5071422;28;20347;-75
2021/10/28 17:14:25;;;;;;;2.92;2.58;;;;;;;;;;5056832;28;20728;-75
2021/10/28 17:16:53;;;;;;;3.03;2.60;;;;;;;;;;5053401;28;20210;-75
2021/10/28 17:19:20;;;;;;;5.90;3.00;;;;;;;;;;5057830;28;20211;-75
2021/10/28 17:21:48;;;;;;;3.00;2.40;;;;;;;;;;5064151;28;20191;-75
2021/10/28 17:24:26;;;;;;;5.82;3.05;;;;;;;;;;5061877;28;20219;-74
2021/10/28 17:26:53;;;;;;;3.17;2.65;;;;;;;;;;5052145;28;20717;-74
2021/10/28 17:29:20;;;;;;;4.03;2.80;;;;;;;;;;5057270;28;20210;-76
2021/10/28 17:31:50;;;;;;;6.47;3.35;;;;;;;;;;5051952;28;20682;-75
2021/10/28 17:34:19;;;;;;;2.90;2.70;;;;;;;;;;5051365;28;20260;-76
2021/10/28 17:36:51;;;;;;;4.55;3.28;;;;;;;;;;5066831;28;20206;-75
2021/10/28 17:39:20;;;;;;;2.45;2.17;;;;;;;;;;5059442;28;20195;-76
2021/10/28 17:41:47;;;;;;;2.65;2.45;;;;;;;;;;5054595;28;20206;-75
2021/10/28 17:44:14;;;;;;;3.03;2.72;;;;;;;;;;5061729;28;20206;-76
2021/10/28 17:46:41;;;;;;;3.90;3.10;;;;;;;;;;5056955;28;20194;-75
2021/10/28 17:49:08;;;;;;;3.50;2.70;;;;;;;;;;5055640;28;20388;-75
2021/10/28 17:51:38;;;;;;;3.22;2.92;;;;;;;;;;5058834;28;20194;-75
2021/10/28 17:54:09;;;;;;;3.55;2.90;;;;;;;;;;5059998;28;20202;-75
2021/10/28 17:56:39;;;;;;;2.95;2.75;;;;;;;;;;5059333;28;20601;-75
2021/10/28 17:59:06;;;;;;;4.60;2.65;;;;;;;;;;5049417;28;20402;-75
2021/10/28 18:01:34;;;;;;;9.65;8.25;;;;;;;;;;5049791;28;20195;-78
2021/10/28 18:04:01;;;;;;;9.95;7.30;;;;;;;;;;5050957;28;20207;-76
2021/10/28 18:06:29;;;;;;;6.22;4.80;;;;;;;;;;5052331;28;20689;-76
2021/10/28 18:08:57;;;;;;;8.75;5.10;;;;;;;;;;5070588;28;20275;-76
2021/10/28 18:11:25;;;;;;;8.88;5.20;;;;;;;;;;5073292;28;20207;-76
2021/10/28 18:13:56;;;;;;;6.75;5.45;;;;;;;;;;5056356;28;20472;-76
2021/10/28 18:16:25;;;;;;;5.93;4.95;;;;;;;;;;5058388;28;20215;-76
2021/10/28 18:18:52;;;;;;;5.38;4.82;;;;;;;;;;5053631;28;20203;-77
2021/10/28 18:21:19;;;;;;;5.30;4.65;;;;;;;;;;5070857;28;20198;-76
2021/10/28 18:23:49;;;;;;;5.72;5.10;;;;;;;;;;5050155;28;20222;-76
2021/10/28 18:26:17;;;;;;;13.10;6.43;;;;;;;;;;5051474;28;20197;-76
2021/10/28 18:28:45;;;;;;;5.95;4.80;;;;;;;;;;5050751;28;20215;-76
2021/10/28 18:31:12;;;;;;;5.88;5.13;;;;;;;;;;5055736;28;20207;-77
2021/10/28 18:33:39;;;;;;;4.95;4.45;;;;;;;;;;5070754;28;20573;-76
2021/10/28 18:36:08;;;;;;;4.82;4.35;;;;;;;;;;5065783;28;20215;-75
2021/10/28 18:38:36;;;;;;;5.68;5.10;;;;;;;;;;5058505;28;20202;-76
2021/10/28 18:41:03;;;;;;;4.20;3.80;;;;;;;;;;5061592;28;20271;-76
2021/10/28 18:43:32;;;;;;;5.22;4.72;;;;;;;;;;5066313;28;20650;-76
2021/10/28 18:45:59;;;;;;;5.45;4.22;;;;;;;;;;5072178;28;20203;-76
2021/10/28 18:48:27;;;;;;;5.35;4.78;;;;;;;;;;5065295;28;20554;-76
2021/10/28 18:50:54;;;;;;;5.80;5.03;;;;;;;;;;5067649;28;20252;-76
2021/10/28 18:53:21;;;;;;;5.55;4.82;;;;;;;;;;5069123;28;20562;-76
2021/10/28 18:55:48;;;;;;;5.40;4.60;;;;;;;;;;5070076;28;20222;-77
2021/10/28 18:58:15;;;;;;;5.40;4.13;;;;;;;;;;5056090;28;20222;-77
2021/10/28 19:00:44;;;;;;;5.47;4.60;;;;;;;;;;5062530;28;20202;-77
2021/10/28 19:03:11;;;;;;;4.65;4.25;;;;;;;;;;5073947;28;20257;-76
2021/10/28 19:05:38;;;;;;;7.07;5.18;;;;;;;;;;5068418;28;20563;-76
2021/10/28 19:08:06;;;;;;;6.68;5.18;;;;;;;;;;5057051;28;20280;-76
2021/10/28 19:10:33;;;;;;;4.47;4.07;;;;;;;;;;5065169;28;20252;-76
2021/10/28 19:13:01;;;;;;;5.38;4.85;;;;;;;;;;5071388;28;20195;-77
2021/10/28 19:15:28;;;;;;;4.25;3.85;;;;;;;;;;5068835;28;20226;-76
2021/10/28 19:17:57;;;;;;;7.05;4.32;;;;;;;;;;5060217;28;20198;-76
2021/10/28 19:20:25;;;;;;;4.65;4.03;;;;;;;;;;5061630;28;20195;-77
2021/10/28 19:22:54;;;;;;;5.20;4.53;;;;;;;;;;5063200;28;20194;-76
2021/10/28 19:25:21;;;;;;;6.22;5.07;;;;;;;;;;5073845;28;20685;-77
2021/10/28 19:27:51;;;;;;;4.97;4.47;;;;;;;;;;5069556;28;20555;-77
2021/10/28 19:30:26;;;;;;;5.07;4.65;;;;;;;;;;5069021;28;20241;-76
2021/10/28 19:32:57;;;;;;;6.13;5.25;;;;;;;;;;5061151;28;20203;-77
2021/10/28 19:35:28;;;;;;;5.68;5.07;;;;;;;;;;5070307;28;20210;-75
2021/10/28 19:38:02;;;;;;;5.85;5.20;;;;;;;;;;5057978;28;20230;-77
2021/10/28 19:46:09;;;;;;;7.20;5.80;;;;;;;;;;5029977;28;20195;-76
2021/10/28 19:48:37;;;;;;;5.13;4.22;;;;;;;;;;5058476;28;20817;-75
2021/10/28 19:51:05;;;;;;;5.60;5.10;;;;;;;;;;5061692;28;20565;-77
2021/10/28 19:53:33;;;;;;;6.90;6.18;;;;;;;;;;5069240;28;20207;-78
2021/10/28 19:56:09;;;;;;;5.25;4.75;;;;;;;;;;5068307;28;20222;-77
2021/10/28 19:58:38;;;;;;;6.20;5.57;;;;;;;;;;5069161;28;20712;-77
2021/10/28 20:01:10;;;;;;;5.57;4.78;;;;;;;;;;5067784;28;20187;-78
2021/10/28 20:14:47;;;;;;;7.60;6.20;;;;;;;;;;5068463;28;20218;-77
2021/10/28 20:20:06;;;;;;;7.07;5.72;;;;;;;;;;5034026;28;20198;-77
2021/10/28 20:22:34;;;;;;;6.47;5.78;;;;;;;;;;5066058;28;20238;-76
2021/10/28 20:25:02;;;;;;;6.95;6.25;;;;;;;;;;5062809;28;20249;-76
2021/10/28 20:27:29;;;;;;;7.28;6.55;;;;;;;;;;5052784;28;20655;-78
2021/10/28 20:29:56;;;;;;;5.25;4.75;;;;;;;;;;5059595;28;20194;-76
2021/10/28 20:32:23;;;;;;;7.85;5.95;;;;;;;;;;5059042;28;20281;-77
2021/10/28 20:35:03;;;;;;;7.60;5.93;;;;;;;;;;5065399;28;20199;-76
2021/10/28 20:37:31;;;;;;;9.43;7.68;;;;;;;;;;5062766;28;20203;-77
2021/10/28 20:39:59;;;;;;;6.95;6.20;;;;;;;;;;5059618;28;20198;-77
2021/10/28 20:42:36;;;;;;;5.95;5.00;;;;;;;;;;5065880;28;20668;-77
2021/10/28 20:45:05;;;;;;;8.63;6.80;;;;;;;;;;5059839;28;20199;-77
2021/10/28 20:47:32;;;;;;;8.90;6.40;;;;;;;;;;5068235;28;20249;-77
2021/10/28 20:50:01;;;;;;;7.30;6.60;;;;;;;;;;5069196;28;20256;-77
2021/10/28 20:52:28;;;;;;;7.78;6.22;;;;;;;;;;5056711;28;20203;-74
2021/10/28 20:54:56;;;;;;;7.45;6.35;;;;;;;;;;5051511;28;20215;-77
2021/10/28 20:57:24;;;;;;;7.03;6.32;;;;;;;;;;5063250;28;20203;-77
2021/10/28 20:59:51;;;;;;;7.20;6.53;;;;;;;;;;5067738;28;20191;-75
2021/10/28 21:02:19;;;;;;;7.30;6.03;;;;;;;;;;5069640;28;20382;-75
2021/10/28 21:04:46;;;;;;;8.38;6.88;;;;;;;;;;5056906;28;20210;-76
2021/10/28 21:07:13;;;;;;;7.85;7.05;;;;;;;;;;5052616;28;20206;-76
2021/10/28 21:09:40;;;;;;;10.95;6.22;;;;;;;;;;5067932;28;20225;-76
2021/10/28 21:12:08;;;;;;;8.75;7.30;;;;;;;;;;5060732;28;20195;-78
2021/10/28 21:14:36;;;;;;;9.27;8.38;;;;;;;;;;5060318;28;20195;-78
2021/10/28 21:17:04;;;;;;;6.47;5.88;;;;;;;;;;5057332;28;20234;-76
2021/10/28 21:19:31;;;;;;;8.10;6.65;;;;;;;;;;5054419;28;20595;-76
2021/10/28 21:21:58;;;;;;;9.15;6.85;;;;;;;;;;5054259;28;20298;-75
2021/10/28 21:24:26;;;;;;;11.18;7.60;;;;;;;;;;5060073;28;20587;-76
2021/10/28 21:26:53;;;;;;;7.63;6.10;;;;;;;;;;5064789;28;20241;-75
2021/10/28 21:29:20;;;;;;;9.27;7.00;;;;;;;;;;5064297;28;20205;-75
2021/10/28 21:31:49;;;;;;;11.05;7.45;;;;;;;;;;5058017;28;20211;-76
2021/10/28 21:34:16;;;;;;;7.72;7.03;;;;;;;;;;5070962;28;20273;-74
2021/10/28 21:36:43;;;;;;;7.60;5.90;;;;;;;;;;5061218;28;20223;-76
2021/10/28 21:39:10;;;;;;;7.78;6.85;;;;;;;;;;5064235;28;20191;-78
2021/10/28 21:41:37;;;;;;;9.88;8.02;;;;;;;;;;5071219;28;20565;-76
2021/10/28 21:44:04;;;;;;;6.90;6.20;;;;;;;;;;5068043;28;20549;-76
2021/10/28 21:46:35;;;;;;;7.18;6.45;;;;;;;;;;5064549;28;20190;-76
2021/10/28 21:49:03;;;;;;;6.45;5.53;;;;;;;;;;5067627;28;20594;-75
2021/10/28 21:51:30;;;;;;;7.80;7.00;;;;;;;;;;5067218;28;20195;-77
2021/10/28 21:53:58;;;;;;;7.40;6.70;;;;;;;;;;5059847;28;20218;-76
2021/10/28 21:56:32;;;;;;;6.35;5.60;;;;;;;;;;5059811;28;20525;-75
2021/10/28 22:01:46;;;;;;;6.47;5.72;;;;;;;;;;5068648;28;20818;-75
2021/10/28 22:07:13;;;;;;;7.18;6.10;;;;;;;;;;5053408;28;20272;-75
2021/10/28 22:26:10;;;;;;;7.95;6.93;;;;;;;;;;5066208;28;20240;-76
2021/10/28 22:28:37;;;;;;;7.15;6.20;;;;;;;;;;5070593;28;20191;-76
2021/10/28 22:31:04;;;;;;;7.03;6.32;;;;;;;;;;5070595;28;20199;-76
2021/10/28 22:33:31;;;;;;;7.70;6.40;;;;;;;;;;5072508;28;20194;-76
2021/10/28 22:36:04;;;;;;;7.75;6.85;;;;;;;;;;5062866;28;20743;-76
2021/10/28 22:38:33;;;;;;;6.45;5.85;;;;;;;;;;5065833;28;20329;-76
2021/10/28 22:41:00;;;;;;;7.35;6.25;;;;;;;;;;5074713;28;20202;-75
2021/10/28 22:43:27;;;;;;;7.90;6.10;;;;;;;;;;5068621;28;20205;-77
2021/10/28 22:45:55;;;;;;;6.53;5.65;;;;;;;;;;5064452;28;20294;-77
2021/10/28 22:48:22;;;;;;;10.10;7.63;;;;;;;;;;5054888;28;20210;-77
2021/10/28 22:50:49;;;;;;;6.45;5.85;;;;;;;;;;5064251;28;20206;-76
2021/10/28 22:53:18;;;;;;;7.97;6.32;;;;;;;;;;5062394;28;20202;-77
2021/10/28 22:55:48;;;;;;;6.25;5.65;;;;;;;;;;5055192;28;20265;-77
2021/10/28 22:58:18;;;;;;;7.53;6.07;;;;;;;;;;5062662;28;20561;-77
2021/10/28 23:00:59;;;;;;;8.30;6.30;;;;;;;;;;5068190;28;20190;-77
2021/10/28 23:03:35;;;;;;;6.10;5.03;;;;;;;;;;5057673;28;20196;-77
2021/10/28 23:06:16;;;;;;;8.05;6.07;;;;;;;;;;5063011;28;20191;-77
2021/10/28 23:10:07;;;;;;;6.72;6.10;;;;;;;;;;5073528;28;20233;-78